sensor_id;sensor_type;location;lat;lon;timestamp;temperature;humidity
1137;DHT22;557;48.466;7.950;2023-06-05T00:01:53;14.70;50.50
1137;DHT22;557;48.466;7.950;2023-06-05T00:04:41;14.70;40.80
1137;DHT22;557;48.466;7.950;2023-06-05T00:07:29;14.60;20.00
1137;DHT22;557;48.466;7.950;2023-06-05T00:10:16;14.60;29.00
1137;DHT22;557;48.466;7.950;2023-06-05T00:13:04;14.60;61.00
1137;DHT22;557;48.466;7.950;2023-06-05T00:15:53;14.50;43.90
1137;DHT22;557;48.466;7.950;2023-06-05T00:18:40;14.50;30.00
1137;DHT22;557;48.466;7.950;2023-06-05T00:21:29;14.40;13.00
1137;DHT22;557;48.466;7.950;2023-06-05T00:24:16;14.40;24.10
1137;DHT22;557;48.466;7.950;2023-06-05T00:27:04;14.40;47.50
1137;DHT22;557;48.466;7.950;2023-06-05T00:29:51;14.30;3.50
1137;DHT22;557;48.466;7.950;2023-06-05T00:32:41;14.10;8.90
1137;DHT22;557;48.466;7.950;2023-06-05T00:35:28;14.10;20.40
1137;DHT22;557;48.466;7.950;2023-06-05T00:38:15;14.10;42.60
1137;DHT22;557;48.466;7.950;2023-06-05T00:41:03;14.00;28.00
1137;DHT22;557;48.466;7.950;2023-06-05T00:43:50;13.90;45.30
1137;DHT22;557;48.466;7.950;2023-06-05T00:46:38;13.90;50.60
1137;DHT22;557;48.466;7.950;2023-06-05T00:49:27;13.90;70.10
1137;DHT22;557;48.466;7.950;2023-06-05T00:52:14;13.90;69.80
1137;DHT22;557;48.466;7.950;2023-06-05T00:55:02;13.80;99.90
1137;DHT22;557;48.466;7.950;2023-06-05T00:57:50;13.70;91.50
1137;DHT22;557;48.466;7.950;2023-06-05T01:00:37;13.60;78.20
1137;DHT22;557;48.466;7.950;2023-06-05T01:03:25;13.50;80.50
1137;DHT22;557;48.466;7.950;2023-06-05T01:06:16;13.40;99.90
1137;DHT22;557;48.466;7.950;2023-06-05T01:09:05;13.50;99.90
1137;DHT22;557;48.466;7.950;2023-06-05T01:11:58;13.50;99.90
1137;DHT22;557;48.466;7.950;2023-06-05T01:14:48;13.40;86.30
1137;DHT22;557;48.466;7.950;2023-06-05T01:17:38;13.40;99.90
1137;DHT22;557;48.466;7.950;2023-06-05T01:20:32;13.40;99.90
1137;DHT22;557;48.466;7.950;2023-06-05T01:23:21;13.40;99.90
1137;DHT22;557;48.466;7.950;2023-06-05T01:26:18;13.30;74.10
1137;DHT22;557;48.466;7.950;2023-06-05T01:29:11;13.20;79.70
1137;DHT22;557;48.466;7.950;2023-06-05T01:32:03;13.10;85.50
1137;DHT22;557;48.466;7.950;2023-06-05T01:34:53;13.10;91.20
1137;DHT22;557;48.466;7.950;2023-06-05T01:37:43;13.00;99.90
1137;DHT22;557;48.466;7.950;2023-06-05T01:40:35;13.10;86.80
1137;DHT22;557;48.466;7.950;2023-06-05T01:43:23;13.00;90.10
1137;DHT22;557;48.466;7.950;2023-06-05T01:46:12;13.00;78.70
1137;DHT22;557;48.466;7.950;2023-06-05T01:49:00;12.90;72.50
1137;DHT22;557;48.466;7.950;2023-06-05T01:51:48;12.80;99.40
1137;DHT22;557;48.466;7.950;2023-06-05T01:54:36;12.80;99.90
1137;DHT22;557;48.466;7.950;2023-06-05T01:57:26;12.80;89.20
1137;DHT22;557;48.466;7.950;2023-06-05T02:00:13;12.80;99.90
1137;DHT22;557;48.466;7.950;2023-06-05T02:03:02;12.80;92.40
1137;DHT22;557;48.466;7.950;2023-06-05T02:05:49;12.70;94.20
1137;DHT22;557;48.466;7.950;2023-06-05T02:08:37;12.70;99.90
1137;DHT22;557;48.466;7.950;2023-06-05T02:11:24;12.60;65.20
1137;DHT22;557;48.466;7.950;2023-06-05T02:14:13;12.60;69.60
1137;DHT22;557;48.466;7.950;2023-06-05T02:17:01;12.60;69.10
1137;DHT22;557;48.466;7.950;2023-06-05T02:19:50;12.50;99.80
1137;DHT22;557;48.466;7.950;2023-06-05T02:22:37;12.50;52.20
1137;DHT22;557;48.466;7.950;2023-06-05T02:25:25;12.40;42.00
1137;DHT22;557;48.466;7.950;2023-06-05T02:28:13;12.50;76.00
1137;DHT22;557;48.466;7.950;2023-06-05T02:31:01;12.40;29.80
1137;DHT22;557;48.466;7.950;2023-06-05T02:33:51;12.40;30.60
1137;DHT22;557;48.466;7.950;2023-06-05T02:36:38;12.40;54.70
1137;DHT22;557;48.466;7.950;2023-06-05T02:39:28;12.40;44.30
1137;DHT22;557;48.466;7.950;2023-06-05T02:42:16;12.30;65.60
1137;DHT22;557;48.466;7.950;2023-06-05T02:45:05;12.40;99.90
1137;DHT22;557;48.466;7.950;2023-06-05T02:47:54;12.40;99.90
1137;DHT22;557;48.466;7.950;2023-06-05T02:50:42;12.40;91.20
1137;DHT22;557;48.466;7.950;2023-06-05T02:53:29;12.30;62.90
1137;DHT22;557;48.466;7.950;2023-06-05T02:56:16;12.30;79.90
1137;DHT22;557;48.466;7.950;2023-06-05T02:59:04;12.30;99.90
1137;DHT22;557;48.466;7.950;2023-06-05T03:01:51;12.30;89.80
1137;DHT22;557;48.466;7.950;2023-06-05T03:04:40;12.20;84.80
1137;DHT22;557;48.466;7.950;2023-06-05T03:07:29;12.10;84.00
1137;DHT22;557;48.466;7.950;2023-06-05T03:10:17;12.00;99.90
1137;DHT22;557;48.466;7.950;2023-06-05T03:13:05;12.00;99.90
1137;DHT22;557;48.466;7.950;2023-06-05T03:15:52;12.10;99.90
1137;DHT22;557;48.466;7.950;2023-06-05T03:18:42;12.00;99.90
1137;DHT22;557;48.466;7.950;2023-06-05T03:21:31;12.00;99.90
1137;DHT22;557;48.466;7.950;2023-06-05T03:24:18;11.90;99.90
1137;DHT22;557;48.466;7.950;2023-06-05T03:27:06;11.90;99.90
1137;DHT22;557;48.466;7.950;2023-06-05T03:29:53;11.80;99.90
1137;DHT22;557;48.466;7.950;2023-06-05T03:32:42;11.80;99.90
1137;DHT22;557;48.466;7.950;2023-06-05T03:35:29;11.80;99.90
1137;DHT22;557;48.466;7.950;2023-06-05T03:38:20;11.70;99.90
1137;DHT22;557;48.466;7.950;2023-06-05T03:41:07;11.70;99.90
1137;DHT22;557;48.466;7.950;2023-06-05T03:43:55;11.70;99.90
1137;DHT22;557;48.466;7.950;2023-06-05T03:46:43;11.70;99.90
1137;DHT22;557;48.466;7.950;2023-06-05T03:49:32;11.60;99.90
1137;DHT22;557;48.466;7.950;2023-06-05T03:52:19;11.60;99.90
1137;DHT22;557;48.466;7.950;2023-06-05T03:55:10;11.60;99.90
1137;DHT22;557;48.466;7.950;2023-06-05T03:57:58;11.60;99.90
1137;DHT22;557;48.466;7.950;2023-06-05T04:00:47;11.60;99.90
1137;DHT22;557;48.466;7.950;2023-06-05T04:03:35;11.50;99.90
1137;DHT22;557;48.466;7.950;2023-06-05T04:06:24;11.50;99.90
1137;DHT22;557;48.466;7.950;2023-06-05T04:09:12;11.50;99.90
1137;DHT22;557;48.466;7.950;2023-06-05T04:12:00;11.60;99.90
1137;DHT22;557;48.466;7.950;2023-06-05T04:14:49;11.60;99.90
1137;DHT22;557;48.466;7.950;2023-06-05T04:17:36;11.60;84.60
1137;DHT22;557;48.466;7.950;2023-06-05T04:20:24;11.80;99.90
1137;DHT22;557;48.466;7.950;2023-06-05T04:23:11;11.80;67.60
1137;DHT22;557;48.466;7.950;2023-06-05T04:25:58;11.80;64.80
1137;DHT22;557;48.466;7.950;2023-06-05T04:28:47;11.80;39.40
1137;DHT22;557;48.466;7.950;2023-06-05T04:31:36;11.90;47.20
1137;DHT22;557;48.466;7.950;2023-06-05T04:34:26;12.00;44.60
1137;DHT22;557;48.466;7.950;2023-06-05T04:37:14;12.10;42.10
1137;DHT22;557;48.466;7.950;2023-06-05T04:40:02;12.20;35.70
1137;DHT22;557;48.466;7.950;2023-06-05T04:42:51;12.20;1.00
1137;DHT22;557;48.466;7.950;2023-06-05T04:45:41;12.40;1.00
1137;DHT22;557;48.466;7.950;2023-06-05T04:48:29;12.60;1.00
1137;DHT22;557;48.466;7.950;2023-06-05T04:51:16;12.60;1.00
1137;DHT22;557;48.466;7.950;2023-06-05T04:54:04;12.80;1.00
1137;DHT22;557;48.466;7.950;2023-06-05T04:56:51;13.00;1.00
1137;DHT22;557;48.466;7.950;2023-06-05T04:59:39;13.10;1.00
1137;DHT22;557;48.466;7.950;2023-06-05T05:02:28;13.20;1.00
1137;DHT22;557;48.466;7.950;2023-06-05T05:05:16;13.30;1.00
1137;DHT22;557;48.466;7.950;2023-06-05T05:08:04;13.40;99.90
1137;DHT22;557;48.466;7.950;2023-06-05T05:10:52;13.50;99.90
1137;DHT22;557;48.466;7.950;2023-06-05T05:13:39;13.70;1.00
1137;DHT22;557;48.466;7.950;2023-06-05T05:16:26;13.90;99.90
1137;DHT22;557;48.466;7.950;2023-06-05T05:19:17;14.00;99.90
1137;DHT22;557;48.466;7.950;2023-06-05T05:22:04;14.20;99.90
1137;DHT22;557;48.466;7.950;2023-06-05T05:24:51;14.40;99.90
1137;DHT22;557;48.466;7.950;2023-06-05T05:27:39;14.70;99.90
1137;DHT22;557;48.466;7.950;2023-06-05T05:30:26;14.80;99.90
1137;DHT22;557;48.466;7.950;2023-06-05T05:33:15;15.00;1.00
1137;DHT22;557;48.466;7.950;2023-06-05T05:36:04;15.20;99.90
1137;DHT22;557;48.466;7.950;2023-06-05T05:38:52;15.30;99.90
1137;DHT22;557;48.466;7.950;2023-06-05T05:41:40;15.60;1.00
1137;DHT22;557;48.466;7.950;2023-06-05T05:44:27;15.70;99.90
1137;DHT22;557;48.466;7.950;2023-06-05T05:47:14;15.80;1.00
1137;DHT22;557;48.466;7.950;2023-06-05T05:50:02;15.90;1.00
1137;DHT22;557;48.466;7.950;2023-06-05T05:52:51;16.20;1.00
1137;DHT22;557;48.466;7.950;2023-06-05T05:55:39;16.30;99.90
1137;DHT22;557;48.466;7.950;2023-06-05T05:58:26;16.40;99.90
1137;DHT22;557;48.466;7.950;2023-06-05T06:01:13;16.30;99.90
1137;DHT22;557;48.466;7.950;2023-06-05T06:04:01;16.10;1.00
1137;DHT22;557;48.466;7.950;2023-06-05T06:06:49;16.10;1.00
1137;DHT22;557;48.466;7.950;2023-06-05T06:09:39;16.30;99.90
1137;DHT22;557;48.466;7.950;2023-06-05T06:12:27;16.50;1.00
1137;DHT22;557;48.466;7.950;2023-06-05T06:15:15;16.80;99.90
1137;DHT22;557;48.466;7.950;2023-06-05T06:18:02;17.10;99.90
1137;DHT22;557;48.466;7.950;2023-06-05T06:20:50;17.30;1.00
1137;DHT22;557;48.466;7.950;2023-06-05T06:23:37;17.20;99.90
1137;DHT22;557;48.466;7.950;2023-06-05T06:26:26;17.10;1.00
1137;DHT22;557;48.466;7.950;2023-06-05T06:29:14;17.20;99.90
1137;DHT22;557;48.466;7.950;2023-06-05T06:32:02;17.40;99.90
1137;DHT22;557;48.466;7.950;2023-06-05T06:34:49;17.30;99.90
1137;DHT22;557;48.466;7.950;2023-06-05T06:37:37;17.40;99.90
1137;DHT22;557;48.466;7.950;2023-06-05T06:40:24;17.40;99.90
1137;DHT22;557;48.466;7.950;2023-06-05T06:43:13;17.50;99.90
1137;DHT22;557;48.466;7.950;2023-06-05T06:46:01;17.60;99.90
1137;DHT22;557;48.466;7.950;2023-06-05T06:48:49;17.80;99.90
1137;DHT22;557;48.466;7.950;2023-06-05T06:51:36;17.90;99.90
1137;DHT22;557;48.466;7.950;2023-06-05T06:54:24;17.90;99.90
1137;DHT22;557;48.466;7.950;2023-06-05T06:57:12;18.00;99.90
1137;DHT22;557;48.466;7.950;2023-06-05T07:00:01;18.10;99.90
1137;DHT22;557;48.466;7.950;2023-06-05T07:02:50;18.10;99.90
1137;DHT22;557;48.466;7.950;2023-06-05T07:05:37;18.40;99.90
1137;DHT22;557;48.466;7.950;2023-06-05T07:08:24;18.50;99.90
1137;DHT22;557;48.466;7.950;2023-06-05T07:11:12;18.70;99.90
1137;DHT22;557;48.466;7.950;2023-06-05T07:13:59;18.90;99.90
1137;DHT22;557;48.466;7.950;2023-06-05T07:16:48;19.10;99.90
1137;DHT22;557;48.466;7.950;2023-06-05T07:19:37;19.30;99.90
1137;DHT22;557;48.466;7.950;2023-06-05T07:22:26;19.50;99.90
1137;DHT22;557;48.466;7.950;2023-06-05T07:25:14;19.70;99.90
1137;DHT22;557;48.466;7.950;2023-06-05T07:28:08;19.50;99.90
1137;DHT22;557;48.466;7.950;2023-06-05T07:30:56;19.60;99.90
1137;DHT22;557;48.466;7.950;2023-06-05T07:33:49;19.70;99.90
1137;DHT22;557;48.466;7.950;2023-06-05T07:36:36;19.90;99.90
1137;DHT22;557;48.466;7.950;2023-06-05T07:39:24;20.40;99.90
1137;DHT22;557;48.466;7.950;2023-06-05T07:42:11;20.70;99.90
1137;DHT22;557;48.466;7.950;2023-06-05T07:44:58;21.00;98.60
1137;DHT22;557;48.466;7.950;2023-06-05T07:47:45;21.00;85.00
1137;DHT22;557;48.466;7.950;2023-06-05T07:50:34;20.80;77.10
1137;DHT22;557;48.466;7.950;2023-06-05T07:53:22;21.10;75.60
1137;DHT22;557;48.466;7.950;2023-06-05T07:56:09;21.20;59.10
1137;DHT22;557;48.466;7.950;2023-06-05T07:58:57;21.20;68.20
1137;DHT22;557;48.466;7.950;2023-06-05T08:01:45;21.40;68.30
1137;DHT22;557;48.466;7.950;2023-06-05T08:04:35;21.70;65.80
1137;DHT22;557;48.466;7.950;2023-06-05T08:07:23;22.00;57.50
1137;DHT22;557;48.466;7.950;2023-06-05T08:10:11;22.30;51.30
1137;DHT22;557;48.466;7.950;2023-06-05T08:12:58;22.50;51.70
1137;DHT22;557;48.466;7.950;2023-06-05T08:15:46;22.70;43.20
1137;DHT22;557;48.466;7.950;2023-06-05T08:18:33;22.90;34.40
1137;DHT22;557;48.466;7.950;2023-06-05T08:21:21;23.00;25.60
1137;DHT22;557;48.466;7.950;2023-06-05T08:24:10;23.20;22.80
1137;DHT22;557;48.466;7.950;2023-06-05T08:26:57;23.20;15.20
1137;DHT22;557;48.466;7.950;2023-06-05T08:29:45;23.40;11.50
1137;DHT22;557;48.466;7.950;2023-06-05T08:32:32;23.40;9.50
1137;DHT22;557;48.466;7.950;2023-06-05T08:35:20;23.70;9.00
1137;DHT22;557;48.466;7.950;2023-06-05T08:38:07;23.20;4.30
1137;DHT22;557;48.466;7.950;2023-06-05T08:41:00;23.30;8.40
1137;DHT22;557;48.466;7.950;2023-06-05T08:43:48;23.50;7.60
1137;DHT22;557;48.466;7.950;2023-06-05T08:46:36;23.90;4.30
1137;DHT22;557;48.466;7.950;2023-06-05T08:49:26;24.10;2.80
1137;DHT22;557;48.466;7.950;2023-06-05T08:52:15;24.10;1.10
1137;DHT22;557;48.466;7.950;2023-06-05T08:55:04;24.00;1.30
1137;DHT22;557;48.466;7.950;2023-06-05T08:57:53;24.30;6.00
1137;DHT22;557;48.466;7.950;2023-06-05T09:00:40;24.60;1.00
1137;DHT22;557;48.466;7.950;2023-06-05T09:03:28;24.60;1.00
1137;DHT22;557;48.466;7.950;2023-06-05T09:06:15;24.70;4.60
1137;DHT22;557;48.466;7.950;2023-06-05T09:09:03;24.90;1.00
1137;DHT22;557;48.466;7.950;2023-06-05T09:12:01;25.00;1.00
1137;DHT22;557;48.466;7.950;2023-06-05T09:14:50;25.10;1.00
1137;DHT22;557;48.466;7.950;2023-06-05T09:17:37;25.40;1.00
1137;DHT22;557;48.466;7.950;2023-06-05T09:20:25;25.50;1.00
1137;DHT22;557;48.466;7.950;2023-06-05T09:23:24;25.50;1.00
1137;DHT22;557;48.466;7.950;2023-06-05T09:26:13;25.80;1.00
1137;DHT22;557;48.466;7.950;2023-06-05T09:29:01;25.80;1.00
1137;DHT22;557;48.466;7.950;2023-06-05T09:31:51;26.00;1.00
1137;DHT22;557;48.466;7.950;2023-06-05T09:34:40;25.90;1.00
1137;DHT22;557;48.466;7.950;2023-06-05T09:37:34;26.10;1.00
1137;DHT22;557;48.466;7.950;2023-06-05T09:40:36;26.50;1.00
1137;DHT22;557;48.466;7.950;2023-06-05T09:43:24;26.60;1.00
1137;DHT22;557;48.466;7.950;2023-06-05T09:46:12;26.60;1.00
1137;DHT22;557;48.466;7.950;2023-06-05T09:49:01;26.60;1.00
1137;DHT22;557;48.466;7.950;2023-06-05T09:51:48;26.40;1.00
1137;DHT22;557;48.466;7.950;2023-06-05T09:54:37;26.50;1.00
1137;DHT22;557;48.466;7.950;2023-06-05T09:57:25;26.50;1.00
1137;DHT22;557;48.466;7.950;2023-06-05T10:00:14;26.50;1.00
1137;DHT22;557;48.466;7.950;2023-06-05T10:03:06;26.40;1.00
1137;DHT22;557;48.466;7.950;2023-06-05T10:05:58;26.60;1.00
1137;DHT22;557;48.466;7.950;2023-06-05T10:08:47;27.20;1.00
1137;DHT22;557;48.466;7.950;2023-06-05T10:11:35;27.50;1.00
1137;DHT22;557;48.466;7.950;2023-06-05T10:14:22;27.20;1.00
1137;DHT22;557;48.466;7.950;2023-06-05T10:17:11;27.10;1.00
1137;DHT22;557;48.466;7.950;2023-06-05T10:20:01;27.30;1.00
1137;DHT22;557;48.466;7.950;2023-06-05T10:22:50;27.40;1.00
1137;DHT22;557;48.466;7.950;2023-06-05T10:25:38;27.30;1.00
1137;DHT22;557;48.466;7.950;2023-06-05T10:28:36;27.70;1.00
1137;DHT22;557;48.466;7.950;2023-06-05T10:31:39;27.90;1.00
1137;DHT22;557;48.466;7.950;2023-06-05T10:34:43;27.90;1.00
1137;DHT22;557;48.466;7.950;2023-06-05T10:37:43;28.10;1.00
1137;DHT22;557;48.466;7.950;2023-06-05T10:40:35;28.10;1.00
1137;DHT22;557;48.466;7.950;2023-06-05T10:43:27;28.00;1.00
1137;DHT22;557;48.466;7.950;2023-06-05T10:46:31;28.30;1.00
1137;DHT22;557;48.466;7.950;2023-06-05T10:49:20;28.80;1.00
1137;DHT22;557;48.466;7.950;2023-06-05T10:52:36;29.00;1.00
1137;DHT22;557;48.466;7.950;2023-06-05T10:55:25;28.90;1.00
1137;DHT22;557;48.466;7.950;2023-06-05T10:58:15;29.00;1.00
1137;DHT22;557;48.466;7.950;2023-06-05T11:01:19;29.00;1.00
1137;DHT22;557;48.466;7.950;2023-06-05T11:04:07;29.00;1.00
1137;DHT22;557;48.466;7.950;2023-06-05T11:07:16;28.90;1.00
1137;DHT22;557;48.466;7.950;2023-06-05T11:10:05;29.40;1.00
1137;DHT22;557;48.466;7.950;2023-06-05T11:13:02;29.80;1.00
1137;DHT22;557;48.466;7.950;2023-06-05T11:15:51;30.20;1.00
1137;DHT22;557;48.466;7.950;2023-06-05T11:18:42;30.40;1.00
1137;DHT22;557;48.466;7.950;2023-06-05T11:22:01;30.40;1.00
1137;DHT22;557;48.466;7.950;2023-06-05T11:28:10;30.40;1.00
1137;DHT22;557;48.466;7.950;2023-06-05T11:30:59;30.80;1.00
1137;DHT22;557;48.466;7.950;2023-06-05T11:33:47;30.90;1.00
1137;DHT22;557;48.466;7.950;2023-06-05T11:36:34;31.00;1.00
1137;DHT22;557;48.466;7.950;2023-06-05T11:39:21;31.00;1.00
1137;DHT22;557;48.466;7.950;2023-06-05T11:42:21;30.80;1.00
1137;DHT22;557;48.466;7.950;2023-06-05T11:45:11;31.10;1.00
1137;DHT22;557;48.466;7.950;2023-06-05T11:48:06;31.40;1.00
1137;DHT22;557;48.466;7.950;2023-06-05T11:50:55;31.70;1.00
1137;DHT22;557;48.466;7.950;2023-06-05T11:53:45;31.70;1.00
1137;DHT22;557;48.466;7.950;2023-06-05T11:56:33;31.70;1.00
1137;DHT22;557;48.466;7.950;2023-06-05T11:59:23;32.00;1.00
1137;DHT22;557;48.466;7.950;2023-06-05T12:02:11;32.10;1.00
1137;DHT22;557;48.466;7.950;2023-06-05T12:05:00;32.30;1.00
1137;DHT22;557;48.466;7.950;2023-06-05T12:07:47;32.50;1.00
1137;DHT22;557;48.466;7.950;2023-06-05T12:10:36;32.40;1.00
1137;DHT22;557;48.466;7.950;2023-06-05T12:13:24;32.20;1.00
1137;DHT22;557;48.466;7.950;2023-06-05T12:16:32;32.10;1.00
1137;DHT22;557;48.466;7.950;2023-06-05T12:19:19;31.70;1.00
1137;DHT22;557;48.466;7.950;2023-06-05T12:22:08;31.80;1.00
1137;DHT22;557;48.466;7.950;2023-06-05T12:24:56;32.20;1.00
1137;DHT22;557;48.466;7.950;2023-06-05T12:27:43;32.60;1.00
1137;DHT22;557;48.466;7.950;2023-06-05T12:30:39;32.70;1.00
1137;DHT22;557;48.466;7.950;2023-06-05T12:33:27;32.80;1.00
1137;DHT22;557;48.466;7.950;2023-06-05T12:36:14;33.10;1.00
1137;DHT22;557;48.466;7.950;2023-06-05T12:39:04;33.00;1.00
1137;DHT22;557;48.466;7.950;2023-06-05T12:41:52;33.20;1.00
1137;DHT22;557;48.466;7.950;2023-06-05T12:44:40;33.60;1.00
1137;DHT22;557;48.466;7.950;2023-06-05T12:47:27;33.70;1.00
1137;DHT22;557;48.466;7.950;2023-06-05T12:50:14;33.60;1.00
1137;DHT22;557;48.466;7.950;2023-06-05T12:53:02;33.20;1.00
1137;DHT22;557;48.466;7.950;2023-06-05T12:55:50;33.00;1.00
1137;DHT22;557;48.466;7.950;2023-06-05T12:58:37;33.00;1.00
1137;DHT22;557;48.466;7.950;2023-06-05T13:01:25;33.40;1.00
1137;DHT22;557;48.466;7.950;2023-06-05T13:04:14;33.30;1.00
1137;DHT22;557;48.466;7.950;2023-06-05T13:07:01;33.10;1.00
1137;DHT22;557;48.466;7.950;2023-06-05T13:09:49;33.20;1.00
1137;DHT22;557;48.466;7.950;2023-06-05T13:12:39;33.20;1.00
1137;DHT22;557;48.466;7.950;2023-06-05T13:15:28;32.80;1.00
1137;DHT22;557;48.466;7.950;2023-06-05T13:18:15;32.80;1.00
1137;DHT22;557;48.466;7.950;2023-06-05T13:21:03;32.80;1.00
1137;DHT22;557;48.466;7.950;2023-06-05T13:23:51;32.70;1.00
1137;DHT22;557;48.466;7.950;2023-06-05T13:26:39;32.60;1.00
1137;DHT22;557;48.466;7.950;2023-06-05T13:29:29;32.70;1.00
1137;DHT22;557;48.466;7.950;2023-06-05T13:32:16;32.90;1.00
1137;DHT22;557;48.466;7.950;2023-06-05T13:35:04;32.70;1.00
1137;DHT22;557;48.466;7.950;2023-06-05T13:37:52;32.40;1.00
1137;DHT22;557;48.466;7.950;2023-06-05T13:40:39;32.50;1.00
1137;DHT22;557;48.466;7.950;2023-06-05T13:43:28;32.10;1.00
1137;DHT22;557;48.466;7.950;2023-06-05T13:46:17;32.10;1.00
1137;DHT22;557;48.466;7.950;2023-06-05T13:49:04;32.00;1.00
1137;DHT22;557;48.466;7.950;2023-06-05T13:51:52;32.30;1.00
1137;DHT22;557;48.466;7.950;2023-06-05T13:54:39;32.20;1.00
1137;DHT22;557;48.466;7.950;2023-06-05T13:57:29;32.30;1.00
1137;DHT22;557;48.466;7.950;2023-06-05T14:00:17;32.40;1.00
1137;DHT22;557;48.466;7.950;2023-06-05T14:03:07;32.60;1.00
1137;DHT22;557;48.466;7.950;2023-06-05T14:05:54;32.60;1.00
1137;DHT22;557;48.466;7.950;2023-06-05T14:08:41;32.40;1.00
1137;DHT22;557;48.466;7.950;2023-06-05T14:11:29;32.10;1.00
1137;DHT22;557;48.466;7.950;2023-06-05T14:14:16;31.40;1.00
1137;DHT22;557;48.466;7.950;2023-06-05T14:17:05;31.50;1.00
1137;DHT22;557;48.466;7.950;2023-06-05T14:19:54;32.10;1.00
1137;DHT22;557;48.466;7.950;2023-06-05T14:22:41;32.30;1.00
1137;DHT22;557;48.466;7.950;2023-06-05T14:25:30;32.60;1.00
1137;DHT22;557;48.466;7.950;2023-06-05T14:28:17;33.00;1.00
1137;DHT22;557;48.466;7.950;2023-06-05T14:31:05;33.20;1.00
1137;DHT22;557;48.466;7.950;2023-06-05T14:33:52;33.20;1.00
1137;DHT22;557;48.466;7.950;2023-06-05T14:36:42;33.20;1.00
1137;DHT22;557;48.466;7.950;2023-06-05T14:39:36;32.30;1.00
1137;DHT22;557;48.466;7.950;2023-06-05T14:42:23;31.90;1.00
1137;DHT22;557;48.466;7.950;2023-06-05T14:45:11;32.40;1.00
1137;DHT22;557;48.466;7.950;2023-06-05T14:47:58;32.80;1.00
1137;DHT22;557;48.466;7.950;2023-06-05T14:50:45;33.20;1.00
1137;DHT22;557;48.466;7.950;2023-06-05T14:53:34;33.30;1.00
1137;DHT22;557;48.466;7.950;2023-06-05T14:56:21;33.70;1.00
1137;DHT22;557;48.466;7.950;2023-06-05T14:59:09;33.70;1.00
1137;DHT22;557;48.466;7.950;2023-06-05T15:01:56;33.40;1.00
1137;DHT22;557;48.466;7.950;2023-06-05T15:04:44;32.60;1.00
1137;DHT22;557;48.466;7.950;2023-06-05T15:07:35;32.30;1.00
1137;DHT22;557;48.466;7.950;2023-06-05T15:10:24;32.40;1.00
1137;DHT22;557;48.466;7.950;2023-06-05T15:13:12;32.40;1.00
1137;DHT22;557;48.466;7.950;2023-06-05T15:16:00;32.60;1.00
1137;DHT22;557;48.466;7.950;2023-06-05T15:18:47;32.90;1.00
1137;DHT22;557;48.466;7.950;2023-06-05T15:21:34;33.20;1.00
1137;DHT22;557;48.466;7.950;2023-06-05T15:24:22;32.50;1.00
1137;DHT22;557;48.466;7.950;2023-06-05T15:27:11;32.80;1.00
1137;DHT22;557;48.466;7.950;2023-06-05T15:29:58;33.10;1.00
1137;DHT22;557;48.466;7.950;2023-06-05T15:32:45;33.40;1.00
1137;DHT22;557;48.466;7.950;2023-06-05T15:35:33;33.80;1.00
1137;DHT22;557;48.466;7.950;2023-06-05T15:38:20;32.90;1.00
1137;DHT22;557;48.466;7.950;2023-06-05T15:41:07;31.80;1.00
1137;DHT22;557;48.466;7.950;2023-06-05T15:43:56;31.60;1.00
1137;DHT22;557;48.466;7.950;2023-06-05T15:46:44;33.00;1.00
1137;DHT22;557;48.466;7.950;2023-06-05T15:49:31;34.00;1.00
1137;DHT22;557;48.466;7.950;2023-06-05T15:52:18;34.70;1.00
1137;DHT22;557;48.466;7.950;2023-06-05T15:55:07;35.30;1.00
1137;DHT22;557;48.466;7.950;2023-06-05T15:57:55;35.80;1.00
1137;DHT22;557;48.466;7.950;2023-06-05T16:00:44;36.10;1.00
1137;DHT22;557;48.466;7.950;2023-06-05T16:03:31;36.10;1.00
1137;DHT22;557;48.466;7.950;2023-06-05T16:06:19;34.90;1.00
1137;DHT22;557;48.466;7.950;2023-06-05T16:09:07;32.60;1.00
1137;DHT22;557;48.466;7.950;2023-06-05T16:11:54;31.20;1.00
1137;DHT22;557;48.466;7.950;2023-06-05T16:14:42;30.60;1.00
1137;DHT22;557;48.466;7.950;2023-06-05T16:17:30;30.20;1.00
1137;DHT22;557;48.466;7.950;2023-06-05T16:20:18;29.80;1.00
1137;DHT22;557;48.466;7.950;2023-06-05T16:23:06;29.30;1.00
1137;DHT22;557;48.466;7.950;2023-06-05T16:25:53;29.00;1.00
1137;DHT22;557;48.466;7.950;2023-06-05T16:28:41;28.70;1.00
1137;DHT22;557;48.466;7.950;2023-06-05T16:31:28;28.40;1.00
1137;DHT22;557;48.466;7.950;2023-06-05T16:34:17;28.30;1.00
1137;DHT22;557;48.466;7.950;2023-06-05T16:37:05;28.30;1.00
1137;DHT22;557;48.466;7.950;2023-06-05T16:39:52;28.10;1.00
1137;DHT22;557;48.466;7.950;2023-06-05T16:42:40;28.00;1.00
1137;DHT22;557;48.466;7.950;2023-06-05T16:45:27;27.80;1.00
1137;DHT22;557;48.466;7.950;2023-06-05T16:48:15;27.80;1.00
1137;DHT22;557;48.466;7.950;2023-06-05T16:51:04;27.70;1.00
1137;DHT22;557;48.466;7.950;2023-06-05T16:53:51;27.60;1.00
1137;DHT22;557;48.466;7.950;2023-06-05T16:56:38;27.50;1.00
1137;DHT22;557;48.466;7.950;2023-06-05T16:59:26;27.40;1.00
1137;DHT22;557;48.466;7.950;2023-06-05T17:02:13;27.30;1.00
1137;DHT22;557;48.466;7.950;2023-06-05T17:05:01;27.30;1.00
1137;DHT22;557;48.466;7.950;2023-06-05T17:07:50;27.20;1.00
1137;DHT22;557;48.466;7.950;2023-06-05T17:10:37;27.10;1.00
1137;DHT22;557;48.466;7.950;2023-06-05T17:13:25;27.00;1.00
1137;DHT22;557;48.466;7.950;2023-06-05T17:16:12;27.00;1.00
1137;DHT22;557;48.466;7.950;2023-06-05T17:18:59;26.90;1.00
1137;DHT22;557;48.466;7.950;2023-06-05T17:21:46;26.90;1.00
1137;DHT22;557;48.466;7.950;2023-06-05T17:24:35;26.80;1.00
1137;DHT22;557;48.466;7.950;2023-06-05T17:27:22;26.60;1.00
1137;DHT22;557;48.466;7.950;2023-06-05T17:30:11;26.60;1.00
1137;DHT22;557;48.466;7.950;2023-06-05T17:32:59;26.50;1.00
1137;DHT22;557;48.466;7.950;2023-06-05T17:35:46;26.40;1.00
1137;DHT22;557;48.466;7.950;2023-06-05T17:38:34;26.40;1.00
1137;DHT22;557;48.466;7.950;2023-06-05T17:41:22;26.20;1.00
1137;DHT22;557;48.466;7.950;2023-06-05T17:44:09;26.00;1.00
1137;DHT22;557;48.466;7.950;2023-06-05T17:46:59;25.70;1.00
1137;DHT22;557;48.466;7.950;2023-06-05T17:49:47;25.60;1.00
1137;DHT22;557;48.466;7.950;2023-06-05T17:52:35;25.50;1.00
1137;DHT22;557;48.466;7.950;2023-06-05T17:55:22;25.40;1.00
1137;DHT22;557;48.466;7.950;2023-06-05T17:58:11;25.30;1.00
1137;DHT22;557;48.466;7.950;2023-06-05T18:00:58;25.10;1.00
1137;DHT22;557;48.466;7.950;2023-06-05T18:03:45;25.10;1.00
1137;DHT22;557;48.466;7.950;2023-06-05T18:06:32;24.90;1.00
1137;DHT22;557;48.466;7.950;2023-06-05T18:09:20;24.90;1.00
1137;DHT22;557;48.466;7.950;2023-06-05T18:12:08;24.80;1.00
1137;DHT22;557;48.466;7.950;2023-06-05T18:14:57;24.70;1.00
1137;DHT22;557;48.466;7.950;2023-06-05T18:17:44;24.60;1.00
1137;DHT22;557;48.466;7.950;2023-06-05T18:20:31;24.50;1.00
1137;DHT22;557;48.466;7.950;2023-06-05T18:23:19;24.40;1.00
1137;DHT22;557;48.466;7.950;2023-06-05T18:26:06;24.40;1.00
1137;DHT22;557;48.466;7.950;2023-06-05T18:28:53;24.30;1.00
1137;DHT22;557;48.466;7.950;2023-06-05T18:31:42;24.10;1.00
1137;DHT22;557;48.466;7.950;2023-06-05T18:34:30;24.10;1.00
1137;DHT22;557;48.466;7.950;2023-06-05T18:37:19;24.00;1.00
1137;DHT22;557;48.466;7.950;2023-06-05T18:40:07;23.80;1.00
1137;DHT22;557;48.466;7.950;2023-06-05T18:42:55;23.70;1.00
1137;DHT22;557;48.466;7.950;2023-06-05T18:45:43;23.60;1.00
1137;DHT22;557;48.466;7.950;2023-06-05T18:48:31;23.60;1.00
1137;DHT22;557;48.466;7.950;2023-06-05T18:51:19;23.50;1.00
1137;DHT22;557;48.466;7.950;2023-06-05T18:54:06;23.40;1.00